Terminal Aerodrome Forecast
Issued by NWS Cleveland, OH

Home | Current Version | Previous Version | Graphics & Text | Print | Product List | Glossary On
Versions: 1 2 3 4 5 6 7 8 9 10 11 12 13 14 15 16 17 18
000
FTUS41 KCLE 160500
TAFYNG
TAF
KYNG 160540Z 1606/1706 10010KT P6SM OVC200
     FM161500 15010G18KT P6SM SCT080 OVC150
     FM161800 16012KT 6SM -SHRA BKN060 OVC100
     FM162100 18012KT 6SM -SHRA OVC025
     FM162300 18010KT P6SM BKN014 OVC030=

USA.gov is the U.S. government's official web portal to all federal, state and local government web resources and services.